sensor_id;sensor_type;location;lat;lon;timestamp;pressure;altitude;pressure_sealevel;temperature;humidity
33781;BME280;20097;50.832;19.100;2023-03-25T00:00:59;97238.94;;;11.62;100.00
33781;BME280;20097;50.832;19.100;2023-03-25T00:06:05;97241.56;;;11.56;100.00
33781;BME280;20097;50.832;19.100;2023-03-25T00:11:11;97239.56;;;11.51;100.00
33781;BME280;20097;50.832;19.100;2023-03-25T00:16:15;97242.19;;;11.51;100.00
33781;BME280;20097;50.832;19.100;2023-03-25T00:21:21;97237.34;;;11.48;100.00
33781;BME280;20097;50.832;19.100;2023-03-25T00:26:26;97228.97;;;11.33;100.00
33781;BME280;20097;50.832;19.100;2023-03-25T00:31:31;97243.41;;;11.29;100.00
33781;BME280;20097;50.832;19.100;2023-03-25T00:36:36;97230.16;;;11.18;100.00
33781;BME280;20097;50.832;19.100;2023-03-25T00:41:41;97225.78;;;11.05;100.00
33781;BME280;20097;50.832;19.100;2023-03-25T00:46:46;97229.41;;;10.91;100.00
33781;BME280;20097;50.832;19.100;2023-03-25T00:51:51;97236.63;;;10.69;100.00
33781;BME280;20097;50.832;19.100;2023-03-25T00:56:57;97247.25;;;10.55;100.00
33781;BME280;20097;50.832;19.100;2023-03-25T01:02:01;97251.44;;;10.43;100.00
33781;BME280;20097;50.832;19.100;2023-03-25T01:07:09;97245.75;;;10.20;100.00
33781;BME280;20097;50.832;19.100;2023-03-25T01:12:16;97233.03;;;10.04;100.00
33781;BME280;20097;50.832;19.100;2023-03-25T01:17:21;97213.16;;;9.90;100.00
33781;BME280;20097;50.832;19.100;2023-03-25T01:22:25;97211.91;;;9.86;100.00
33781;BME280;20097;50.832;19.100;2023-03-25T01:27:30;97207.50;;;9.80;100.00
33781;BME280;20097;50.832;19.100;2023-03-25T01:32:34;97216.09;;;9.73;100.00
33781;BME280;20097;50.832;19.100;2023-03-25T01:37:39;97210.69;;;9.75;100.00
33781;BME280;20097;50.832;19.100;2023-03-25T01:42:47;97209.66;;;9.69;100.00
33781;BME280;20097;50.832;19.100;2023-03-25T01:48:01;97205.03;;;9.65;100.00
33781;BME280;20097;50.832;19.100;2023-03-25T01:53:08;97199.22;;;9.69;100.00
33781;BME280;20097;50.832;19.100;2023-03-25T01:58:15;97199.63;;;9.66;100.00
33781;BME280;20097;50.832;19.100;2023-03-25T02:03:20;97206.03;;;9.64;100.00
33781;BME280;20097;50.832;19.100;2023-03-25T02:08:26;97194.66;;;9.71;100.00
33781;BME280;20097;50.832;19.100;2023-03-25T02:13:33;97202.22;;;9.66;100.00
33781;BME280;20097;50.832;19.100;2023-03-25T02:18:42;97202.63;;;9.63;100.00
33781;BME280;20097;50.832;19.100;2023-03-25T02:24:11;97203.47;;;9.70;100.00
33781;BME280;20097;50.832;19.100;2023-03-25T02:29:29;97186.59;;;9.66;100.00
33781;BME280;20097;50.832;19.100;2023-03-25T02:34:53;97171.38;;;9.63;100.00
33781;BME280;20097;50.832;19.100;2023-03-25T02:40:04;97174.59;;;9.65;100.00
33781;BME280;20097;50.832;19.100;2023-03-25T02:45:14;97175.38;;;9.66;100.00
33781;BME280;20097;50.832;19.100;2023-03-25T02:50:24;97193.22;;;9.62;100.00
33781;BME280;20097;50.832;19.100;2023-03-25T02:55:32;97214.66;;;9.64;100.00
33781;BME280;20097;50.832;19.100;2023-03-25T03:00:37;97210.22;;;9.58;100.00
33781;BME280;20097;50.832;19.100;2023-03-25T03:05:43;97214.22;;;9.54;100.00
33781;BME280;20097;50.832;19.100;2023-03-25T03:10:53;97215.81;;;9.55;100.00
33781;BME280;20097;50.832;19.100;2023-03-25T03:16:01;97217.41;;;9.56;100.00
33781;BME280;20097;50.832;19.100;2023-03-25T03:21:11;97211.41;;;9.56;100.00
33781;BME280;20097;50.832;19.100;2023-03-25T03:26:21;97206.78;;;9.58;100.00
33781;BME280;20097;50.832;19.100;2023-03-25T03:31:30;97218.00;;;9.52;100.00
33781;BME280;20097;50.832;19.100;2023-03-25T03:36:58;97211.78;;;9.53;100.00
33781;BME280;20097;50.832;19.100;2023-03-25T03:42:06;97212.13;;;9.43;100.00
33781;BME280;20097;50.832;19.100;2023-03-25T03:47:15;97218.16;;;9.44;100.00
33781;BME280;20097;50.832;19.100;2023-03-25T03:52:22;97225.56;;;9.40;100.00
33781;BME280;20097;50.832;19.100;2023-03-25T03:57:30;97226.47;;;9.26;100.00
33781;BME280;20097;50.832;19.100;2023-03-25T04:02:37;97238.03;;;9.17;100.00
33781;BME280;20097;50.832;19.100;2023-03-25T04:07:44;97248.19;;;9.12;100.00
33781;BME280;20097;50.832;19.100;2023-03-25T04:12:58;97242.44;;;9.17;100.00
33781;BME280;20097;50.832;19.100;2023-03-25T04:18:03;97243.75;;;9.06;100.00
33781;BME280;20097;50.832;19.100;2023-03-25T04:23:07;97244.56;;;9.07;100.00
33781;BME280;20097;50.832;19.100;2023-03-25T04:28:13;97248.53;;;9.03;100.00
33781;BME280;20097;50.832;19.100;2023-03-25T04:33:19;97245.78;;;8.83;100.00
33781;BME280;20097;50.832;19.100;2023-03-25T04:38:23;97255.03;;;8.65;100.00
33781;BME280;20097;50.832;19.100;2023-03-25T04:43:30;97247.06;;;8.45;100.00
33781;BME280;20097;50.832;19.100;2023-03-25T04:48:34;97254.09;;;8.30;100.00
33781;BME280;20097;50.832;19.100;2023-03-25T04:53:43;97256.25;;;8.26;100.00
33781;BME280;20097;50.832;19.100;2023-03-25T04:58:49;97266.72;;;8.18;100.00
33781;BME280;20097;50.832;19.100;2023-03-25T05:03:53;97275.94;;;8.00;100.00
33781;BME280;20097;50.832;19.100;2023-03-25T05:09:00;97271.34;;;8.02;100.00
33781;BME280;20097;50.832;19.100;2023-03-25T05:14:07;97274.41;;;7.91;100.00
33781;BME280;20097;50.832;19.100;2023-03-25T05:19:12;97272.81;;;7.90;100.00
33781;BME280;20097;50.832;19.100;2023-03-25T05:24:16;97263.75;;;7.86;100.00
33781;BME280;20097;50.832;19.100;2023-03-25T05:29:22;97267.69;;;7.96;100.00
33781;BME280;20097;50.832;19.100;2023-03-25T05:34:27;97274.44;;;8.12;100.00
33781;BME280;20097;50.832;19.100;2023-03-25T05:39:32;97275.44;;;8.25;100.00
33781;BME280;20097;50.832;19.100;2023-03-25T05:44:38;97281.59;;;8.39;100.00
33781;BME280;20097;50.832;19.100;2023-03-25T05:49:49;97288.28;;;8.48;100.00
33781;BME280;20097;50.832;19.100;2023-03-25T05:54:53;97279.66;;;8.69;100.00
33781;BME280;20097;50.832;19.100;2023-03-25T05:59:59;97277.00;;;8.83;100.00
33781;BME280;20097;50.832;19.100;2023-03-25T06:05:13;97286.53;;;8.97;100.00
33781;BME280;20097;50.832;19.100;2023-03-25T06:10:18;97291.22;;;9.08;100.00
33781;BME280;20097;50.832;19.100;2023-03-25T06:15:24;97287.72;;;9.22;100.00
33781;BME280;20097;50.832;19.100;2023-03-25T06:20:35;97288.16;;;9.26;100.00
33781;BME280;20097;50.832;19.100;2023-03-25T06:25:39;97288.38;;;9.31;100.00
33781;BME280;20097;50.832;19.100;2023-03-25T06:30:45;97290.91;;;9.18;100.00
33781;BME280;20097;50.832;19.100;2023-03-25T06:35:49;97290.19;;;9.30;100.00
33781;BME280;20097;50.832;19.100;2023-03-25T06:40:56;97291.94;;;9.51;100.00
33781;BME280;20097;50.832;19.100;2023-03-25T06:46:03;97294.19;;;9.60;100.00
33781;BME280;20097;50.832;19.100;2023-03-25T06:51:27;97296.59;;;9.62;100.00
33781;BME280;20097;50.832;19.100;2023-03-25T06:56:31;97303.59;;;9.61;100.00
33781;BME280;20097;50.832;19.100;2023-03-25T07:01:37;97304.09;;;9.78;100.00
33781;BME280;20097;50.832;19.100;2023-03-25T07:06:41;97293.47;;;10.14;100.00
33781;BME280;20097;50.832;19.100;2023-03-25T07:11:45;97289.00;;;10.55;100.00
33781;BME280;20097;50.832;19.100;2023-03-25T07:16:51;97284.59;;;10.75;100.00
33781;BME280;20097;50.832;19.100;2023-03-25T07:21:55;97283.00;;;10.87;100.00
33781;BME280;20097;50.832;19.100;2023-03-25T07:26:59;97282.41;;;11.11;100.00
33781;BME280;20097;50.832;19.100;2023-03-25T07:32:07;97288.44;;;11.38;100.00
33781;BME280;20097;50.832;19.100;2023-03-25T07:37:11;97286.03;;;11.36;100.00
33781;BME280;20097;50.832;19.100;2023-03-25T07:42:16;97277.16;;;11.37;100.00
33781;BME280;20097;50.832;19.100;2023-03-25T07:47:45;97274.34;;;11.45;100.00
33781;BME280;20097;50.832;19.100;2023-03-25T07:52:52;97273.13;;;11.54;100.00
33781;BME280;20097;50.832;19.100;2023-03-25T07:57:57;97275.34;;;11.44;100.00
33781;BME280;20097;50.832;19.100;2023-03-25T08:03:05;97260.25;;;11.59;100.00
33781;BME280;20097;50.832;19.100;2023-03-25T08:08:09;97250.13;;;11.89;100.00
33781;BME280;20097;50.832;19.100;2023-03-25T08:13:13;97247.47;;;12.02;100.00
33781;BME280;20097;50.832;19.100;2023-03-25T08:18:19;97252.59;;;12.21;100.00
33781;BME280;20097;50.832;19.100;2023-03-25T08:23:23;97249.16;;;12.27;100.00
33781;BME280;20097;50.832;19.100;2023-03-25T08:28:28;97243.19;;;12.52;97.03
33781;BME280;20097;50.832;19.100;2023-03-25T08:33:34;97241.56;;;12.82;95.85
33781;BME280;20097;50.832;19.100;2023-03-25T08:38:42;97241.06;;;12.91;89.73
33781;BME280;20097;50.832;19.100;2023-03-25T08:43:47;97238.06;;;13.19;88.88
33781;BME280;20097;50.832;19.100;2023-03-25T08:48:53;97228.94;;;13.46;84.81
33781;BME280;20097;50.832;19.100;2023-03-25T08:53:57;97233.75;;;13.67;78.93
33781;BME280;20097;50.832;19.100;2023-03-25T08:59:02;97236.38;;;13.67;78.03
33781;BME280;20097;50.832;19.100;2023-03-25T09:04:08;97239.78;;;13.49;74.40
33781;BME280;20097;50.832;19.100;2023-03-25T09:09:12;97233.53;;;13.68;75.37
33781;BME280;20097;50.832;19.100;2023-03-25T09:14:17;97220.72;;;13.78;73.64
33781;BME280;20097;50.832;19.100;2023-03-25T09:19:23;97221.75;;;14.07;77.46
33781;BME280;20097;50.832;19.100;2023-03-25T09:24:27;97228.53;;;14.44;72.84
33781;BME280;20097;50.832;19.100;2023-03-25T09:29:36;97228.13;;;14.59;67.64
33781;BME280;20097;50.832;19.100;2023-03-25T09:34:41;97226.97;;;14.96;67.63
33781;BME280;20097;50.832;19.100;2023-03-25T09:39:46;97225.72;;;15.10;64.66
33781;BME280;20097;50.832;19.100;2023-03-25T09:44:54;97222.59;;;14.90;65.46
33781;BME280;20097;50.832;19.100;2023-03-25T09:50:04;97219.88;;;14.96;63.52
33781;BME280;20097;50.832;19.100;2023-03-25T09:55:12;97222.78;;;15.41;65.48
33781;BME280;20097;50.832;19.100;2023-03-25T10:00:19;97218.53;;;15.40;65.28
33781;BME280;20097;50.832;19.100;2023-03-25T10:05:49;97225.03;;;15.14;65.63
33781;BME280;20097;50.832;19.100;2023-03-25T10:11:01;97244.09;;;13.98;69.92
33781;BME280;20097;50.832;19.100;2023-03-25T10:16:11;97226.97;;;12.92;92.07
33781;BME280;20097;50.832;19.100;2023-03-25T10:21:24;97210.69;;;13.15;100.00
33781;BME280;20097;50.832;19.100;2023-03-25T10:26:30;97204.34;;;12.98;100.00
33781;BME280;20097;50.832;19.100;2023-03-25T10:31:45;97200.81;;;13.35;100.00
33781;BME280;20097;50.832;19.100;2023-03-25T10:36:54;97192.72;;;13.72;100.00
33781;BME280;20097;50.832;19.100;2023-03-25T10:42:02;97187.56;;;13.30;98.46
33781;BME280;20097;50.832;19.100;2023-03-25T10:47:09;97182.25;;;13.18;93.30
33781;BME280;20097;50.832;19.100;2023-03-25T10:52:17;97184.22;;;13.77;91.89
33781;BME280;20097;50.832;19.100;2023-03-25T10:57:24;97175.09;;;13.61;87.91
33781;BME280;20097;50.832;19.100;2023-03-25T11:02:29;97173.16;;;13.57;87.19
33781;BME280;20097;50.832;19.100;2023-03-25T11:07:36;97161.38;;;13.77;84.23
33781;BME280;20097;50.832;19.100;2023-03-25T11:12:43;97156.88;;;14.14;83.43
33781;BME280;20097;50.832;19.100;2023-03-25T11:17:58;97163.78;;;14.27;76.80
33781;BME280;20097;50.832;19.100;2023-03-25T11:23:06;97151.53;;;14.21;69.97
33781;BME280;20097;50.832;19.100;2023-03-25T11:28:14;97148.69;;;14.52;68.57
33781;BME280;20097;50.832;19.100;2023-03-25T11:33:19;97149.38;;;14.82;67.48
33781;BME280;20097;50.832;19.100;2023-03-25T11:38:30;97152.72;;;14.89;66.84
33781;BME280;20097;50.832;19.100;2023-03-25T11:43:36;97161.72;;;14.58;65.67
33781;BME280;20097;50.832;19.100;2023-03-25T11:48:42;97165.81;;;14.25;66.99
33781;BME280;20097;50.832;19.100;2023-03-25T11:53:49;97164.16;;;13.82;66.33
33781;BME280;20097;50.832;19.100;2023-03-25T11:58:57;97140.97;;;13.98;66.88
33781;BME280;20097;50.832;19.100;2023-03-25T12:04:14;97141.59;;;14.64;64.08
33781;BME280;20097;50.832;19.100;2023-03-25T12:09:21;97135.78;;;14.85;59.65
33781;BME280;20097;50.832;19.100;2023-03-25T12:14:30;97128.31;;;15.63;56.76
33781;BME280;20097;50.832;19.100;2023-03-25T12:19:43;97145.13;;;15.90;55.47
33781;BME280;20097;50.832;19.100;2023-03-25T12:25:08;97146.63;;;15.58;53.58
33781;BME280;20097;50.832;19.100;2023-03-25T12:30:23;97128.09;;;15.53;54.89
33781;BME280;20097;50.832;19.100;2023-03-25T12:35:32;97115.69;;;15.65;54.49
33781;BME280;20097;50.832;19.100;2023-03-25T12:40:50;97113.19;;;15.07;55.99
33781;BME280;20097;50.832;19.100;2023-03-25T12:46:05;97113.16;;;15.70;54.96
33781;BME280;20097;50.832;19.100;2023-03-25T12:51:19;97100.75;;;15.54;55.29
33781;BME280;20097;50.832;19.100;2023-03-25T12:56:42;97112.84;;;15.94;55.15
33781;BME280;20097;50.832;19.100;2023-03-25T13:01:52;97097.38;;;15.98;55.53
33781;BME280;20097;50.832;19.100;2023-03-25T13:07:01;97107.16;;;15.86;55.36
33781;BME280;20097;50.832;19.100;2023-03-25T13:12:09;97107.81;;;15.13;56.73
33781;BME280;20097;50.832;19.100;2023-03-25T13:17:21;97120.59;;;14.75;58.92
33781;BME280;20097;50.832;19.100;2023-03-25T13:22:30;97109.41;;;14.91;59.96
33781;BME280;20097;50.832;19.100;2023-03-25T13:27:39;97115.75;;;14.26;59.70
33781;BME280;20097;50.832;19.100;2023-03-25T13:32:45;97109.06;;;14.12;61.24
33781;BME280;20097;50.832;19.100;2023-03-25T13:37:53;97106.66;;;14.40;61.29
33781;BME280;20097;50.832;19.100;2023-03-25T13:43:04;97106.31;;;15.06;57.75
33781;BME280;20097;50.832;19.100;2023-03-25T13:48:11;97109.72;;;14.60;56.58
33781;BME280;20097;50.832;19.100;2023-03-25T13:53:20;97108.38;;;14.69;56.69
33781;BME280;20097;50.832;19.100;2023-03-25T13:58:41;97103.59;;;14.66;56.26
33781;BME280;20097;50.832;19.100;2023-03-25T14:04:13;97122.78;;;14.14;55.50
33781;BME280;20097;50.832;19.100;2023-03-25T14:09:53;97119.78;;;13.81;57.66
33781;BME280;20097;50.832;19.100;2023-03-25T14:15:02;97108.63;;;13.56;60.11
33781;BME280;20097;50.832;19.100;2023-03-25T14:20:09;97122.06;;;13.48;57.94
33781;BME280;20097;50.832;19.100;2023-03-25T14:25:19;97117.22;;;13.45;57.45
33781;BME280;20097;50.832;19.100;2023-03-25T14:30:26;97113.09;;;13.19;58.52
33781;BME280;20097;50.832;19.100;2023-03-25T14:35:54;97110.03;;;13.22;60.07
33781;BME280;20097;50.832;19.100;2023-03-25T14:40:59;97116.06;;;13.23;60.53
33781;BME280;20097;50.832;19.100;2023-03-25T14:46:14;97115.94;;;13.18;61.82
33781;BME280;20097;50.832;19.100;2023-03-25T14:51:42;97120.53;;;12.98;61.28
33781;BME280;20097;50.832;19.100;2023-03-25T14:56:52;97124.88;;;12.68;63.54
33781;BME280;20097;50.832;19.100;2023-03-25T15:02:05;97131.91;;;12.42;65.81
33781;BME280;20097;50.832;19.100;2023-03-25T15:07:16;97147.22;;;12.14;66.33
33781;BME280;20097;50.832;19.100;2023-03-25T15:12:23;97154.44;;;11.81;66.42
33781;BME280;20097;50.832;19.100;2023-03-25T15:17:42;97131.06;;;11.93;67.38
33781;BME280;20097;50.832;19.100;2023-03-25T15:28:18;97146.47;;;11.57;66.73
33781;BME280;20097;50.832;19.100;2023-03-25T15:33:34;97144.59;;;12.14;65.28
33781;BME280;20097;50.832;19.100;2023-03-25T15:38:51;97153.88;;;12.41;64.85
33781;BME280;20097;50.832;19.100;2023-03-25T15:44:33;97148.63;;;12.41;64.60
33781;BME280;20097;50.832;19.100;2023-03-25T15:50:18;97139.81;;;12.36;65.95
33781;BME280;20097;50.832;19.100;2023-03-25T15:55:26;97131.47;;;11.90;68.37
33781;BME280;20097;50.832;19.100;2023-03-25T16:00:32;97146.44;;;11.70;70.92
33781;BME280;20097;50.832;19.100;2023-03-25T16:05:44;97144.47;;;11.59;72.51
33781;BME280;20097;50.832;19.100;2023-03-25T16:10:49;97150.13;;;11.49;73.67
33781;BME280;20097;50.832;19.100;2023-03-25T16:15:55;97153.78;;;11.35;75.12
33781;BME280;20097;50.832;19.100;2023-03-25T16:21:02;97152.22;;;11.21;76.77
33781;BME280;20097;50.832;19.100;2023-03-25T16:26:10;97149.44;;;11.03;78.98
33781;BME280;20097;50.832;19.100;2023-03-25T16:31:28;97159.31;;;10.88;80.30
33781;BME280;20097;50.832;19.100;2023-03-25T16:36:38;97176.59;;;10.63;81.01
33781;BME280;20097;50.832;19.100;2023-03-25T16:41:43;97194.47;;;10.53;81.70
33781;BME280;20097;50.832;19.100;2023-03-25T16:46:48;97190.66;;;10.36;82.65
33781;BME280;20097;50.832;19.100;2023-03-25T16:51:55;97188.38;;;10.20;84.25
33781;BME280;20097;50.832;19.100;2023-03-25T16:57:00;97186.78;;;10.12;85.39
33781;BME280;20097;50.832;19.100;2023-03-25T17:02:22;97195.13;;;9.95;86.48
33781;BME280;20097;50.832;19.100;2023-03-25T17:07:28;97193.50;;;9.81;87.49
33781;BME280;20097;50.832;19.100;2023-03-25T17:12:33;97198.81;;;9.66;88.84
33781;BME280;20097;50.832;19.100;2023-03-25T17:17:39;97197.19;;;9.58;88.81
33781;BME280;20097;50.832;19.100;2023-03-25T17:23:01;97192.69;;;9.39;90.46
33781;BME280;20097;50.832;19.100;2023-03-25T17:28:21;97198.47;;;9.28;91.91
33781;BME280;20097;50.832;19.100;2023-03-25T17:33:31;97198.16;;;9.10;94.02
33781;BME280;20097;50.832;19.100;2023-03-25T17:38:40;97200.38;;;9.13;94.18
33781;BME280;20097;50.832;19.100;2023-03-25T17:43:47;97190.44;;;8.96;95.93
33781;BME280;20097;50.832;19.100;2023-03-25T17:48:53;97186.44;;;8.72;99.06
33781;BME280;20097;50.832;19.100;2023-03-25T17:54:09;97196.75;;;8.59;100.00
33781;BME280;20097;50.832;19.100;2023-03-25T17:59:16;97198.28;;;8.47;100.00
33781;BME280;20097;50.832;19.100;2023-03-25T18:04:21;97188.16;;;8.38;100.00
33781;BME280;20097;50.832;19.100;2023-03-25T18:09:26;97201.66;;;8.26;100.00
33781;BME280;20097;50.832;19.100;2023-03-25T18:14:30;97193.13;;;8.18;100.00
33781;BME280;20097;50.832;19.100;2023-03-25T18:19:35;97197.88;;;8.08;100.00
33781;BME280;20097;50.832;19.100;2023-03-25T18:24:40;97202.19;;;8.01;100.00
33781;BME280;20097;50.832;19.100;2023-03-25T18:29:44;97188.75;;;7.97;100.00
33781;BME280;20097;50.832;19.100;2023-03-25T18:34:49;97188.31;;;7.94;100.00
33781;BME280;20097;50.832;19.100;2023-03-25T18:39:54;97189.13;;;7.94;100.00
33781;BME280;20097;50.832;19.100;2023-03-25T18:44:59;97196.47;;;7.91;100.00
33781;BME280;20097;50.832;19.100;2023-03-25T18:50:12;97191.38;;;7.83;100.00
33781;BME280;20097;50.832;19.100;2023-03-25T18:55:19;97199.09;;;7.76;100.00
33781;BME280;20097;50.832;19.100;2023-03-25T19:00:25;97200.22;;;7.67;100.00
33781;BME280;20097;50.832;19.100;2023-03-25T19:05:31;97203.88;;;7.58;100.00
33781;BME280;20097;50.832;19.100;2023-03-25T19:10:37;97208.63;;;7.55;100.00
33781;BME280;20097;50.832;19.100;2023-03-25T19:15:42;97213.22;;;7.53;100.00
33781;BME280;20097;50.832;19.100;2023-03-25T19:20:47;97211.31;;;7.47;100.00
33781;BME280;20097;50.832;19.100;2023-03-25T19:25:53;97217.59;;;7.38;100.00
33781;BME280;20097;50.832;19.100;2023-03-25T19:31:00;97220.28;;;7.30;100.00
33781;BME280;20097;50.832;19.100;2023-03-25T19:36:05;97219.19;;;7.24;100.00
33781;BME280;20097;50.832;19.100;2023-03-25T19:41:12;97214.28;;;7.15;100.00
33781;BME280;20097;50.832;19.100;2023-03-25T19:46:18;97207.03;;;7.10;100.00
33781;BME280;20097;50.832;19.100;2023-03-25T19:51:23;97199.34;;;7.02;100.00
33781;BME280;20097;50.832;19.100;2023-03-25T19:56:28;97196.28;;;6.98;100.00
33781;BME280;20097;50.832;19.100;2023-03-25T20:01:33;97188.88;;;6.95;100.00
33781;BME280;20097;50.832;19.100;2023-03-25T20:06:38;97191.53;;;6.87;100.00
33781;BME280;20097;50.832;19.100;2023-03-25T20:11:44;97201.81;;;6.81;100.00
33781;BME280;20097;50.832;19.100;2023-03-25T20:16:48;97198.59;;;6.79;100.00
33781;BME280;20097;50.832;19.100;2023-03-25T20:21:55;97192.84;;;6.69;100.00
33781;BME280;20097;50.832;19.100;2023-03-25T20:27:01;97199.88;;;6.60;100.00
33781;BME280;20097;50.832;19.100;2023-03-25T20:32:05;97193.72;;;6.61;100.00
33781;BME280;20097;50.832;19.100;2023-03-25T20:37:09;97195.06;;;6.57;100.00
33781;BME280;20097;50.832;19.100;2023-03-25T20:42:15;97200.03;;;6.44;100.00
33781;BME280;20097;50.832;19.100;2023-03-25T20:47:19;97195.19;;;6.41;100.00
33781;BME280;20097;50.832;19.100;2023-03-25T20:52:23;97187.34;;;6.49;100.00
33781;BME280;20097;50.832;19.100;2023-03-25T20:57:32;97197.94;;;6.62;100.00
33781;BME280;20097;50.832;19.100;2023-03-25T21:02:36;97201.44;;;6.69;100.00
33781;BME280;20097;50.832;19.100;2023-03-25T21:07:41;97186.63;;;6.78;100.00
33781;BME280;20097;50.832;19.100;2023-03-25T21:12:46;97195.53;;;6.75;100.00
33781;BME280;20097;50.832;19.100;2023-03-25T21:17:50;97207.78;;;6.81;100.00
33781;BME280;20097;50.832;19.100;2023-03-25T21:22:55;97209.06;;;6.85;100.00
33781;BME280;20097;50.832;19.100;2023-03-25T21:28:03;97213.63;;;6.83;100.00
33781;BME280;20097;50.832;19.100;2023-03-25T21:33:07;97218.81;;;6.83;100.00
33781;BME280;20097;50.832;19.100;2023-03-25T21:38:11;97221.75;;;6.80;100.00
33781;BME280;20097;50.832;19.100;2023-03-25T21:43:17;97224.16;;;6.82;100.00
33781;BME280;20097;50.832;19.100;2023-03-25T21:48:21;97249.34;;;6.73;100.00
33781;BME280;20097;50.832;19.100;2023-03-25T21:53:28;97241.34;;;6.60;100.00
33781;BME280;20097;50.832;19.100;2023-03-25T21:58:34;97239.41;;;6.62;100.00
33781;BME280;20097;50.832;19.100;2023-03-25T22:03:39;97231.81;;;6.61;100.00
33781;BME280;20097;50.832;19.100;2023-03-25T22:08:47;97222.25;;;6.61;100.00
33781;BME280;20097;50.832;19.100;2023-03-25T22:13:52;97224.22;;;6.59;100.00
33781;BME280;20097;50.832;19.100;2023-03-25T22:18:57;97226.97;;;6.58;100.00
33781;BME280;20097;50.832;19.100;2023-03-25T22:24:03;97230.28;;;6.52;100.00
33781;BME280;20097;50.832;19.100;2023-03-25T22:29:09;97237.53;;;6.56;100.00
33781;BME280;20097;50.832;19.100;2023-03-25T22:34:15;97230.16;;;6.45;100.00
33781;BME280;20097;50.832;19.100;2023-03-25T22:39:19;97231.47;;;6.41;100.00
33781;BME280;20097;50.832;19.100;2023-03-25T22:44:26;97232.75;;;6.45;100.00
33781;BME280;20097;50.832;19.100;2023-03-25T22:49:30;97236.84;;;6.40;100.00
33781;BME280;20097;50.832;19.100;2023-03-25T22:54:35;97237.66;;;6.40;100.00
33781;BME280;20097;50.832;19.100;2023-03-25T22:59:41;97236.72;;;6.33;100.00
33781;BME280;20097;50.832;19.100;2023-03-25T23:04:45;97243.69;;;6.33;100.00
33781;BME280;20097;50.832;19.100;2023-03-25T23:09:49;97233.44;;;6.39;100.00
33781;BME280;20097;50.832;19.100;2023-03-25T23:14:55;97240.69;;;6.44;100.00
33781;BME280;20097;50.832;19.100;2023-03-25T23:19:59;97236.31;;;6.44;100.00
33781;BME280;20097;50.832;19.100;2023-03-25T23:25:04;97233.13;;;6.34;100.00
33781;BME280;20097;50.832;19.100;2023-03-25T23:30:11;97236.06;;;6.31;100.00
33781;BME280;20097;50.832;19.100;2023-03-25T23:35:15;97231.25;;;6.28;100.00
33781;BME280;20097;50.832;19.100;2023-03-25T23:40:20;97223.19;;;6.23;100.00
33781;BME280;20097;50.832;19.100;2023-03-25T23:45:25;97227.00;;;6.13;100.00
33781;BME280;20097;50.832;19.100;2023-03-25T23:50:32;97227.47;;;6.16;100.00
33781;BME280;20097;50.832;19.100;2023-03-25T23:55:36;97235.06;;;6.18;100.00
